createdAt,value
2023-05-09T00:01:11.572Z,16.30
2023-05-09T00:03:40.382Z,16.08
2023-05-09T00:06:09.669Z,17.33
2023-05-09T00:08:39.231Z,16.40
2023-05-09T00:11:08.839Z,15.68
2023-05-09T00:13:38.920Z,16.10
2023-05-09T00:16:08.269Z,17.13
2023-05-09T00:18:36.822Z,17.10
2023-05-09T00:21:05.436Z,17.48
2023-05-09T00:23:34.084Z,16.63
2023-05-09T00:26:03.295Z,17.77
2023-05-09T00:28:32.278Z,16.85
2023-05-09T00:31:02.262Z,16.20
2023-05-09T00:33:30.401Z,16.80
2023-05-09T00:35:59.271Z,16.02
2023-05-09T00:38:28.184Z,17.35
2023-05-09T00:40:56.739Z,16.20
2023-05-09T00:43:25.154Z,17.63
2023-05-09T00:45:53.819Z,17.38
2023-05-09T00:48:24.133Z,19.45
2023-05-09T00:50:53.430Z,18.90
2023-05-09T00:53:22.077Z,18.05
2023-05-09T00:55:51.997Z,21.23
2023-05-09T00:58:21.021Z,20.58
2023-05-09T01:00:49.669Z,19.98
2023-05-09T01:03:18.255Z,20.77
2023-05-09T01:05:57.284Z,20.38
2023-05-09T01:08:36.322Z,20.88
2023-05-09T01:11:11.670Z,22.05
2023-05-09T01:13:51.201Z,21.02
2023-05-09T01:16:25.290Z,20.48
2023-05-09T01:18:59.637Z,20.27
2023-05-09T01:21:32.615Z,20.73
2023-05-09T01:24:38.829Z,20.25
2023-05-09T01:29:55.298Z,20.42
2023-05-09T01:32:27.611Z,20.13
2023-05-09T01:34:59.397Z,21.02
2023-05-09T01:37:34.555Z,21.25
2023-05-09T01:42:42.081Z,20.65
2023-05-09T01:45:15.777Z,20.77
2023-05-09T01:47:45.342Z,20.42
2023-05-09T01:50:16.886Z,21.27
2023-05-09T01:52:48.933Z,22.60
2023-05-09T01:55:20.026Z,19.73
2023-05-09T01:57:50.280Z,20.45
2023-05-09T02:00:22.470Z,20.30
2023-05-09T02:02:51.551Z,20.67
2023-05-09T02:05:20.101Z,21.98
2023-05-09T02:07:50.035Z,20.98
2023-05-09T02:10:21.086Z,21.77
2023-05-09T02:12:50.036Z,23.90
2023-05-09T02:15:20.851Z,24.33
2023-05-09T02:17:50.465Z,22.80
2023-05-09T02:20:19.497Z,23.10
2023-05-09T02:22:50.129Z,22.42
2023-05-09T02:25:18.935Z,23.42
2023-05-09T02:27:49.569Z,21.55
2023-05-09T02:30:25.409Z,21.95
2023-05-09T02:32:58.735Z,23.48
2023-05-09T02:35:28.734Z,24.88
2023-05-09T02:37:58.556Z,24.15
2023-05-09T02:40:28.863Z,24.58
2023-05-09T02:42:57.496Z,27.10
2023-05-09T02:45:27.975Z,28.38
2023-05-09T02:47:57.574Z,28.52
2023-05-09T02:50:25.725Z,28.80
2023-05-09T02:52:55.902Z,30.05
2023-05-09T02:55:24.509Z,29.13
2023-05-09T02:58:05.303Z,32.13
2023-05-09T03:00:42.862Z,33.40
2023-05-09T03:03:11.869Z,32.55
2023-05-09T03:05:40.460Z,32.83
2023-05-09T03:08:09.770Z,30.65
2023-05-09T03:10:38.220Z,30.60
2023-05-09T03:13:07.265Z,33.60
2023-05-09T03:15:35.836Z,30.65
2023-05-09T03:18:07.397Z,34.22
2023-05-09T03:20:35.817Z,32.63
2023-05-09T03:23:05.256Z,31.10
2023-05-09T03:25:33.797Z,32.33
2023-05-09T03:28:02.360Z,31.27
2023-05-09T03:30:31.439Z,31.45
2023-05-09T03:33:00.556Z,33.15
2023-05-09T03:35:30.765Z,33.80
2023-05-09T03:37:59.243Z,34.92
2023-05-09T03:40:27.646Z,35.65
2023-05-09T03:43:06.739Z,35.58
2023-05-09T03:45:35.894Z,34.92
2023-05-09T03:48:08.604Z,38.10
2023-05-09T03:50:43.873Z,37.08
2023-05-09T03:53:15.550Z,37.70
2023-05-09T03:55:46.227Z,39.38
2023-05-09T03:58:16.535Z,37.25
2023-05-09T04:00:46.196Z,39.10
2023-05-09T04:05:53.477Z,37.60
2023-05-09T04:08:36.232Z,38.22
2023-05-09T04:11:06.552Z,39.58
2023-05-09T04:13:36.612Z,40.40
2023-05-09T04:16:12.492Z,40.20
2023-05-09T04:18:42.687Z,38.38
2023-05-09T04:21:12.683Z,38.67
2023-05-09T04:23:43.822Z,36.25
2023-05-09T04:26:14.111Z,34.42
2023-05-09T04:28:44.141Z,35.05
2023-05-09T04:31:16.326Z,33.28
2023-05-09T04:33:48.291Z,32.75
2023-05-09T04:36:18.456Z,32.95
2023-05-09T04:38:47.336Z,34.28
2023-05-09T04:41:19.682Z,35.63
2023-05-09T04:43:47.929Z,33.90
2023-05-09T04:46:18.041Z,33.33
2023-05-09T04:48:46.899Z,32.88
2023-05-09T04:51:15.471Z,31.52
2023-05-09T04:53:45.356Z,32.97
2023-05-09T04:56:14.077Z,30.23
2023-05-09T04:58:44.078Z,29.95
2023-05-09T05:01:13.345Z,29.98
2023-05-09T05:03:42.280Z,30.85
2023-05-09T05:06:11.394Z,27.45
2023-05-09T05:08:42.294Z,28.67
2023-05-09T05:11:13.702Z,26.98
2023-05-09T05:13:42.759Z,24.55
2023-05-09T05:16:12.354Z,23.02
2023-05-09T05:18:44.663Z,22.65
2023-05-09T05:21:14.078Z,22.15
2023-05-09T05:23:43.580Z,19.25
2023-05-09T05:26:14.079Z,19.58
2023-05-09T05:28:45.785Z,20.85
2023-05-09T05:31:15.432Z,19.17
2023-05-09T05:33:43.807Z,19.33
2023-05-09T05:36:12.486Z,20.67
2023-05-09T05:38:42.923Z,20.25
2023-05-09T05:41:12.274Z,19.58
2023-05-09T05:43:44.443Z,21.63
2023-05-09T05:46:13.547Z,20.20
2023-05-09T05:48:43.195Z,20.45
2023-05-09T05:51:11.750Z,20.83
2023-05-09T05:53:42.784Z,20.42
2023-05-09T05:56:11.648Z,17.63
2023-05-09T05:58:39.969Z,18.00
2023-05-09T06:01:12.252Z,17.23
2023-05-09T06:03:42.289Z,14.48
2023-05-09T06:06:11.693Z,15.90
2023-05-09T06:08:40.106Z,15.50
2023-05-09T06:11:08.650Z,16.15
2023-05-09T06:13:37.118Z,15.82
2023-05-09T06:16:19.665Z,16.92
2023-05-09T06:18:53.339Z,17.23
2023-05-09T06:21:23.273Z,16.60
2023-05-09T06:26:26.303Z,16.92
2023-05-09T06:28:54.446Z,17.42
2023-05-09T06:31:25.824Z,16.30
2023-05-09T06:33:55.871Z,14.75
2023-05-09T06:36:24.589Z,16.10
2023-05-09T06:38:53.480Z,14.32
2023-05-09T06:41:22.402Z,14.80
2023-05-09T06:43:51.265Z,14.38
2023-05-09T06:46:19.854Z,16.10
2023-05-09T06:48:50.806Z,14.77
2023-05-09T06:51:19.070Z,14.90
2023-05-09T06:53:47.675Z,15.38
2023-05-09T06:56:18.833Z,16.63
2023-05-09T06:58:48.492Z,16.17
2023-05-09T07:01:17.023Z,16.52
2023-05-09T07:03:47.655Z,16.02
2023-05-09T07:06:17.927Z,16.05
2023-05-09T07:08:46.642Z,16.85
2023-05-09T07:11:15.175Z,16.10
2023-05-09T07:13:43.634Z,16.58
2023-05-09T07:16:12.303Z,17.17
2023-05-09T07:18:41.124Z,16.88
2023-05-09T07:21:09.417Z,17.35
2023-05-09T07:23:40.131Z,18.10
2023-05-09T07:26:08.699Z,16.60
2023-05-09T07:28:37.055Z,16.95
2023-05-09T07:31:06.099Z,15.93
2023-05-09T07:33:35.848Z,16.15
2023-05-09T07:36:05.713Z,15.13
2023-05-09T07:38:34.559Z,16.10
2023-05-09T07:41:04.838Z,16.40
2023-05-09T07:43:33.623Z,15.13
2023-05-09T07:46:02.441Z,14.77
2023-05-09T07:48:30.999Z,15.77
2023-05-09T07:50:59.481Z,15.38
2023-05-09T07:53:27.910Z,15.50
2023-05-09T07:55:56.272Z,15.52
2023-05-09T07:58:25.992Z,16.73
2023-05-09T08:00:58.393Z,15.65
2023-05-09T08:03:31.037Z,16.45
2023-05-09T08:06:01.475Z,14.40
2023-05-09T08:08:30.469Z,16.02
2023-05-09T08:11:01.264Z,16.15
2023-05-09T08:13:31.245Z,16.55
2023-05-09T08:15:59.881Z,16.00
2023-05-09T08:18:29.967Z,15.20
2023-05-09T08:20:59.617Z,15.82
2023-05-09T08:23:30.231Z,15.35
2023-05-09T08:25:59.343Z,14.68
2023-05-09T08:28:29.099Z,17.55
2023-05-09T08:30:59.135Z,16.88
2023-05-09T08:33:28.246Z,17.27
2023-05-09T08:35:56.980Z,16.40
2023-05-09T08:38:26.339Z,17.25
2023-05-09T08:40:54.703Z,16.83
2023-05-09T08:43:25.457Z,15.60
2023-05-09T08:45:58.408Z,16.83
2023-05-09T08:48:29.972Z,16.90
2023-05-09T08:50:58.874Z,15.55
2023-05-09T08:53:29.194Z,16.08
2023-05-09T08:56:00.455Z,16.83
2023-05-09T08:58:29.384Z,15.85
2023-05-09T09:00:58.393Z,15.65
2023-05-09T09:03:29.070Z,15.32
2023-05-09T09:05:57.914Z,15.60
2023-05-09T09:08:27.774Z,14.60
2023-05-09T09:10:56.912Z,15.20
2023-05-09T09:13:25.893Z,14.20
2023-05-09T09:15:56.245Z,15.57
2023-05-09T09:18:30.868Z,13.65
2023-05-09T09:23:32.579Z,13.57
2023-05-09T09:26:02.635Z,13.15
2023-05-09T09:28:30.843Z,12.77
2023-05-09T09:30:59.035Z,12.80
2023-05-09T09:33:30.757Z,12.80
2023-05-09T09:35:59.852Z,11.25
2023-05-09T09:38:28.256Z,14.27
2023-05-09T09:40:58.820Z,14.07
2023-05-09T09:43:31.297Z,12.82
2023-05-09T09:46:03.304Z,12.15
2023-05-09T09:48:35.912Z,13.85
2023-05-09T09:51:10.053Z,14.45
2023-05-09T09:53:43.818Z,12.57
2023-05-09T09:56:12.651Z,13.40
2023-05-09T09:58:42.826Z,11.55
2023-05-09T10:01:13.893Z,10.85
2023-05-09T10:03:45.409Z,11.85
2023-05-09T10:06:14.965Z,13.05
2023-05-09T10:08:44.425Z,11.60
2023-05-09T10:11:12.982Z,12.38
2023-05-09T10:13:42.507Z,14.57
2023-05-09T10:16:15.381Z,14.88
2023-05-09T10:18:47.332Z,12.73
2023-05-09T10:21:18.375Z,13.18
2023-05-09T10:23:50.064Z,12.68
2023-05-09T10:26:22.932Z,12.20
2023-05-09T10:28:56.604Z,10.63
2023-05-09T10:31:28.412Z,12.88
2023-05-09T10:34:06.596Z,10.88
2023-05-09T10:36:36.556Z,12.30
2023-05-09T10:39:06.180Z,12.15
2023-05-09T10:41:35.480Z,11.23
2023-05-09T10:44:04.016Z,11.32
2023-05-09T10:46:33.074Z,11.57
2023-05-09T10:49:03.175Z,10.15
2023-05-09T10:51:35.696Z,9.70
2023-05-09T10:54:15.516Z,10.02
2023-05-09T10:56:44.198Z,9.38
2023-05-09T10:59:37.362Z,10.20
2023-05-09T11:02:07.277Z,12.65
2023-05-09T11:04:37.103Z,11.45
2023-05-09T11:07:08.173Z,11.80
2023-05-09T11:09:38.861Z,10.88
2023-05-09T11:12:14.373Z,10.60
2023-05-09T11:14:45.934Z,10.00
2023-05-09T11:17:15.933Z,9.90
2023-05-09T11:20:05.757Z,10.75
2023-05-09T11:22:43.603Z,10.13
2023-05-09T11:25:14.404Z,11.63
2023-05-09T11:27:45.552Z,10.70
2023-05-09T11:30:15.716Z,11.45
2023-05-09T11:32:47.144Z,12.20
2023-05-09T11:35:19.610Z,12.75
2023-05-09T11:37:50.822Z,12.13
2023-05-09T11:40:20.828Z,11.85
2023-05-09T11:42:54.065Z,11.93
2023-05-09T11:45:25.469Z,11.15
2023-05-09T11:47:55.124Z,10.75
2023-05-09T11:50:25.172Z,10.25
2023-05-09T11:52:54.449Z,10.82
2023-05-09T11:55:25.660Z,9.90
2023-05-09T11:57:55.919Z,10.15
2023-05-09T12:00:26.135Z,9.48
2023-05-09T12:02:56.313Z,9.35
2023-05-09T12:05:27.136Z,8.60
2023-05-09T12:07:55.604Z,9.73
2023-05-09T12:10:24.678Z,9.25
2023-05-09T12:12:55.660Z,9.43
2023-05-09T12:15:25.110Z,8.48
2023-05-09T12:18:04.218Z,7.43
2023-05-09T12:20:44.284Z,8.00
2023-05-09T12:23:14.664Z,8.05
2023-05-09T12:25:49.211Z,8.63
2023-05-09T12:28:17.777Z,7.90
2023-05-09T12:30:46.358Z,6.80
2023-05-09T12:33:17.817Z,6.88
2023-05-09T12:35:49.569Z,7.05
2023-05-09T12:38:23.912Z,4.70
2023-05-09T12:41:03.869Z,3.88
2023-05-09T12:43:35.720Z,3.97
2023-05-09T12:46:07.056Z,3.83
2023-05-09T12:48:39.341Z,4.03
2023-05-09T12:51:09.740Z,4.00
2023-05-09T12:53:42.617Z,3.70
2023-05-09T12:56:15.760Z,3.67
2023-05-09T12:58:51.489Z,4.05
2023-05-09T13:01:20.130Z,3.85
2023-05-09T13:03:55.074Z,4.47
2023-05-09T13:06:25.425Z,4.07
2023-05-09T13:09:01.694Z,4.03
2023-05-09T13:11:30.830Z,4.07
2023-05-09T13:14:00.393Z,4.10
2023-05-09T13:16:30.502Z,3.80
2023-05-09T13:19:06.272Z,3.53
2023-05-09T13:21:36.245Z,3.60
2023-05-09T13:24:06.296Z,4.20
2023-05-09T13:26:36.780Z,3.55
2023-05-09T13:29:06.514Z,3.15
2023-05-09T13:31:35.140Z,3.00
2023-05-09T13:34:06.782Z,2.80
2023-05-09T13:36:38.791Z,2.70
2023-05-09T13:39:07.552Z,2.38
2023-05-09T13:41:36.907Z,2.55
2023-05-09T13:44:07.622Z,2.85
2023-05-09T13:46:36.194Z,3.63
2023-05-09T13:49:04.501Z,2.97
2023-05-09T13:51:33.809Z,2.75
2023-05-09T13:54:08.806Z,2.78
2023-05-09T13:56:37.442Z,2.60
2023-05-09T13:59:08.051Z,2.63
2023-05-09T14:01:36.737Z,2.53
2023-05-09T14:04:06.335Z,2.78
2023-05-09T14:06:34.875Z,2.65
2023-05-09T14:09:04.867Z,2.90
2023-05-09T14:11:34.461Z,3.50
2023-05-09T14:14:03.703Z,2.70
2023-05-09T14:16:32.336Z,3.00
2023-05-09T14:19:02.317Z,2.80
2023-05-09T14:21:32.440Z,3.45
2023-05-09T14:24:01.303Z,3.53
2023-05-09T14:26:31.060Z,3.33
2023-05-09T14:28:59.980Z,3.28
2023-05-09T14:31:29.177Z,3.65
2023-05-09T14:33:57.833Z,3.75
2023-05-09T14:36:26.973Z,3.38
2023-05-09T14:38:55.734Z,3.60
2023-05-09T14:41:26.074Z,3.75
2023-05-09T14:43:56.405Z,4.00
2023-05-09T14:46:26.038Z,4.07
2023-05-09T14:48:54.521Z,3.42
2023-05-09T14:51:24.754Z,4.15
2023-05-09T14:53:53.383Z,4.28
2023-05-09T14:56:22.325Z,4.63
2023-05-09T14:58:51.151Z,4.95
2023-05-09T15:01:21.469Z,5.72
2023-05-09T15:03:50.115Z,6.13
2023-05-09T15:06:19.412Z,7.97
2023-05-09T15:08:47.828Z,9.25
2023-05-09T15:11:15.995Z,9.57
2023-05-09T15:13:44.174Z,11.18
2023-05-09T15:16:12.426Z,10.45
2023-05-09T15:18:45.532Z,12.20
2023-05-09T15:21:14.047Z,12.15
2023-05-09T15:23:42.019Z,10.80
2023-05-09T15:26:12.312Z,10.00
2023-05-09T15:28:40.644Z,9.13
2023-05-09T15:31:09.413Z,8.48
2023-05-09T15:33:37.724Z,7.25
2023-05-09T15:36:09.772Z,7.75
2023-05-09T15:38:40.986Z,7.70
2023-05-09T15:41:10.333Z,6.07
2023-05-09T15:43:38.548Z,6.10
2023-05-09T15:46:07.674Z,5.47
2023-05-09T15:48:36.591Z,5.95
2023-05-09T15:51:04.957Z,5.43
2023-05-09T15:53:35.253Z,5.25
2023-05-09T15:56:04.609Z,5.90
2023-05-09T15:58:34.115Z,5.50
2023-05-09T16:01:05.834Z,5.35
2023-05-09T16:03:34.690Z,5.63
2023-05-09T16:06:03.917Z,7.75
2023-05-09T16:08:32.995Z,9.75
2023-05-09T16:11:03.765Z,8.93
2023-05-09T16:13:34.337Z,9.73
2023-05-09T16:16:05.381Z,9.00
2023-05-09T16:18:34.743Z,9.65
2023-05-09T16:21:05.730Z,10.30
2023-05-09T16:23:34.901Z,10.10
2023-05-09T16:26:04.957Z,9.48
2023-05-09T16:28:33.818Z,9.23
2023-05-09T16:31:06.246Z,11.10
2023-05-09T16:33:34.795Z,10.32
2023-05-09T16:36:03.502Z,10.60
2023-05-09T16:38:33.239Z,11.68
2023-05-09T16:41:01.817Z,10.35
2023-05-09T16:43:33.678Z,11.38
2023-05-09T16:46:02.004Z,11.68
2023-05-09T16:48:34.796Z,9.93
2023-05-09T16:51:04.527Z,9.38
2023-05-09T16:53:36.410Z,9.57
2023-05-09T16:56:05.623Z,10.38
2023-05-09T16:58:36.837Z,13.00
2023-05-09T17:01:06.483Z,13.05
2023-05-09T17:03:35.062Z,13.88
2023-05-09T17:06:04.006Z,13.60
2023-05-09T17:08:32.959Z,14.00
2023-05-09T17:11:01.938Z,14.27
2023-05-09T17:13:32.578Z,13.32
2023-05-09T17:16:02.670Z,13.30
2023-05-09T17:18:37.375Z,12.00
2023-05-09T17:21:07.018Z,12.27
2023-05-09T17:23:36.194Z,12.88
2023-05-09T17:26:05.199Z,12.63
2023-05-09T17:28:33.638Z,11.80
2023-05-09T17:31:04.043Z,12.48
2023-05-09T17:33:32.565Z,13.02
2023-05-09T17:36:02.988Z,13.25
2023-05-09T17:38:31.406Z,12.70
2023-05-09T17:41:00.887Z,16.52
2023-05-09T17:43:29.723Z,16.85
2023-05-09T17:45:58.747Z,4.07
2023-05-09T17:48:30.027Z,1.15
2023-05-09T17:50:58.390Z,0.63
2023-05-09T17:53:28.461Z,1.55
2023-05-09T17:55:58.587Z,0.57
2023-05-09T17:58:27.961Z,1.08
2023-05-09T18:00:59.074Z,0.40
2023-05-09T18:03:29.870Z,0.63
2023-05-09T18:06:01.750Z,0.80
2023-05-09T18:08:31.134Z,0.55
2023-05-09T18:10:59.382Z,0.30
2023-05-09T18:13:28.444Z,0.38
2023-05-09T18:15:59.801Z,0.10
2023-05-09T18:18:32.405Z,0.10
2023-05-09T18:21:00.779Z,0.15
2023-05-09T18:23:29.534Z,0.10
2023-05-09T18:25:57.893Z,2.03
2023-05-09T18:28:28.724Z,0.00
2023-05-09T18:30:59.632Z,0.10
2023-05-09T18:33:31.782Z,0.10
2023-05-09T18:36:00.200Z,0.30
2023-05-09T18:38:29.031Z,0.10
2023-05-09T18:40:58.161Z,0.10
2023-05-09T18:43:32.076Z,0.00
2023-05-09T18:46:00.614Z,0.10
2023-05-09T18:48:31.853Z,0.00
2023-05-09T18:51:02.054Z,0.00
2023-05-09T18:53:32.881Z,0.00
2023-05-09T18:56:01.885Z,0.10
2023-05-09T18:58:30.941Z,0.10
2023-05-09T19:01:01.213Z,0.10
2023-05-09T19:03:31.451Z,0.00
2023-05-09T19:06:00.996Z,0.57
2023-05-09T19:08:31.819Z,0.55
2023-05-09T19:11:00.627Z,0.15
2023-05-09T19:13:28.896Z,0.10
2023-05-09T19:15:58.004Z,0.47
2023-05-09T19:18:27.065Z,0.10
2023-05-09T19:20:58.891Z,0.22
2023-05-09T19:23:28.828Z,0.10
2023-05-09T19:25:57.511Z,0.10
2023-05-09T19:28:26.516Z,0.10
2023-05-09T19:30:57.056Z,0.65
2023-05-09T19:33:26.466Z,0.08
2023-05-09T19:35:57.197Z,0.10
2023-05-09T19:38:26.263Z,0.20
2023-05-09T19:40:54.736Z,2.25
2023-05-09T19:43:24.373Z,0.32
2023-05-09T19:45:53.481Z,0.32
2023-05-09T19:48:23.678Z,0.00
2023-05-09T19:50:59.421Z,0.10
2023-05-09T19:55:56.488Z,0.10
2023-05-09T19:58:25.202Z,0.20
2023-05-09T20:00:53.981Z,1.65
2023-05-09T20:03:23.075Z,0.00
2023-05-09T20:05:52.118Z,0.20
2023-05-09T20:08:23.049Z,0.10
2023-05-09T20:10:51.702Z,0.00
2023-05-09T20:13:20.420Z,0.10
2023-05-09T20:15:49.317Z,0.13
2023-05-09T20:18:19.031Z,0.10
2023-05-09T20:20:48.972Z,0.10
2023-05-09T20:23:17.572Z,0.08
2023-05-09T20:25:47.729Z,0.10
2023-05-09T20:28:20.681Z,0.08
2023-05-09T20:30:49.405Z,0.30
2023-05-09T20:33:20.345Z,0.10
2023-05-09T20:35:49.647Z,0.10
2023-05-09T20:38:18.462Z,0.10
2023-05-09T20:40:49.251Z,0.10
2023-05-09T20:43:19.306Z,0.73
2023-05-09T20:45:48.386Z,0.10
2023-05-09T20:48:17.422Z,0.10
2023-05-09T20:50:46.537Z,0.10
2023-05-09T20:53:14.866Z,0.10
2023-05-09T20:55:44.585Z,0.20
2023-05-09T20:58:15.231Z,0.10
2023-05-09T21:00:46.867Z,0.55
2023-05-09T21:03:15.731Z,0.05
2023-05-09T21:05:44.592Z,0.00
2023-05-09T21:08:13.059Z,0.20
2023-05-09T21:10:41.700Z,0.10
2023-05-09T21:13:10.170Z,0.15
2023-05-09T21:15:39.957Z,0.10
2023-05-09T21:18:08.400Z,0.25
2023-05-09T21:20:37.161Z,0.00
2023-05-09T21:23:05.935Z,0.15
2023-05-09T21:25:34.587Z,0.10
2023-05-09T21:28:03.063Z,0.15
2023-05-09T21:30:31.689Z,0.00
2023-05-09T21:33:03.969Z,0.20
2023-05-09T21:35:32.735Z,1.88
2023-05-09T21:38:02.054Z,0.20
2023-05-09T21:40:30.707Z,0.20
2023-05-09T21:42:59.968Z,0.10
2023-05-09T21:45:28.872Z,0.10
2023-05-09T21:47:57.633Z,0.00
2023-05-09T21:50:27.669Z,0.10
2023-05-09T21:53:00.811Z,0.32
2023-05-09T21:55:29.375Z,0.93
2023-05-09T21:57:58.019Z,0.25
2023-05-09T22:00:26.992Z,1.45
2023-05-09T22:02:57.679Z,0.00
2023-05-09T22:05:28.561Z,0.00
2023-05-09T22:07:57.443Z,0.10
2023-05-09T22:10:27.185Z,0.20
2023-05-09T22:12:55.833Z,0.08
2023-05-09T22:15:24.914Z,0.10
2023-05-09T22:17:53.984Z,0.98
2023-05-09T22:20:23.133Z,0.75
2023-05-09T22:22:53.596Z,0.25
2023-05-09T22:25:22.227Z,0.10
2023-05-09T22:27:51.179Z,0.40
2023-05-09T22:30:20.200Z,0.10
2023-05-09T22:32:48.954Z,0.43
2023-05-09T22:35:17.537Z,0.30
2023-05-09T22:37:46.081Z,0.00
2023-05-09T22:40:17.912Z,0.08
2023-05-09T22:42:48.994Z,0.00
2023-05-09T22:45:21.264Z,0.55
2023-05-09T22:50:38.116Z,0.10
2023-05-09T22:53:07.779Z,0.10
2023-05-09T22:55:38.820Z,0.90
2023-05-09T22:58:08.477Z,1.77
2023-05-09T23:00:38.216Z,0.10
2023-05-09T23:03:08.776Z,0.20
2023-05-09T23:05:38.876Z,0.00
2023-05-09T23:08:07.499Z,0.08
2023-05-09T23:10:42.227Z,0.10
2023-05-09T23:13:13.655Z,0.45
2023-05-09T23:15:44.590Z,0.10
2023-05-09T23:18:13.873Z,0.00
2023-05-09T23:20:43.108Z,0.00
2023-05-09T23:23:14.551Z,0.05
2023-05-09T23:25:51.174Z,0.00
2023-05-09T23:28:25.357Z,0.10
2023-05-09T23:30:55.516Z,0.10
2023-05-09T23:33:26.377Z,0.10
2023-05-09T23:35:56.262Z,0.10
2023-05-09T23:38:26.649Z,0.08
2023-05-09T23:41:40.099Z,0.10
2023-05-09T23:44:10.324Z,0.00
2023-05-09T23:46:39.995Z,0.00
2023-05-09T23:49:24.606Z,0.00
2023-05-09T23:51:54.139Z,0.10
2023-05-09T23:54:23.583Z,0.10
2023-05-09T23:56:55.004Z,0.10
2023-05-09T23:59:24.185Z,0.10
